sensor_id;sensor_type;location;lat;lon;timestamp;P1;durP1;ratioP1;P2;durP2;ratioP2
74967;SDS011;63523;51.880;12.630;2023-07-24T00:01:11;3.57;;;1.30;;
74967;SDS011;63523;51.880;12.630;2023-07-24T00:03:37;4.30;;;0.87;;
74967;SDS011;63523;51.880;12.630;2023-07-24T00:06:02;4.13;;;1.13;;
74967;SDS011;63523;51.880;12.630;2023-07-24T00:08:27;4.00;;;1.20;;
74967;SDS011;63523;51.880;12.630;2023-07-24T00:10:53;4.10;;;1.00;;
74967;SDS011;63523;51.880;12.630;2023-07-24T00:13:18;4.13;;;0.90;;
74967;SDS011;63523;51.880;12.630;2023-07-24T00:15:44;3.43;;;1.07;;
74967;SDS011;63523;51.880;12.630;2023-07-24T00:18:09;3.55;;;1.10;;
74967;SDS011;63523;51.880;12.630;2023-07-24T00:20:35;4.47;;;1.10;;
74967;SDS011;63523;51.880;12.630;2023-07-24T00:23:00;4.80;;;1.20;;
74967;SDS011;63523;51.880;12.630;2023-07-24T00:25:25;3.93;;;1.00;;
74967;SDS011;63523;51.880;12.630;2023-07-24T00:27:51;4.20;;;1.13;;
74967;SDS011;63523;51.880;12.630;2023-07-24T00:30:16;4.27;;;1.20;;
74967;SDS011;63523;51.880;12.630;2023-07-24T00:32:41;4.45;;;1.05;;
74967;SDS011;63523;51.880;12.630;2023-07-24T00:35:07;3.80;;;1.00;;
74967;SDS011;63523;51.880;12.630;2023-07-24T00:37:32;3.97;;;1.23;;
74967;SDS011;63523;51.880;12.630;2023-07-24T00:39:58;3.87;;;1.10;;
74967;SDS011;63523;51.880;12.630;2023-07-24T00:42:23;4.80;;;1.20;;
74967;SDS011;63523;51.880;12.630;2023-07-24T00:44:48;3.65;;;0.82;;
74967;SDS011;63523;51.880;12.630;2023-07-24T00:47:13;4.40;;;0.90;;
74967;SDS011;63523;51.880;12.630;2023-07-24T00:49:39;2.87;;;0.70;;
74967;SDS011;63523;51.880;12.630;2023-07-24T00:52:05;2.83;;;0.68;;
74967;SDS011;63523;51.880;12.630;2023-07-24T00:54:32;4.05;;;1.20;;
74967;SDS011;63523;51.880;12.630;2023-07-24T00:56:58;3.20;;;0.70;;
74967;SDS011;63523;51.880;12.630;2023-07-24T00:59:23;3.33;;;1.00;;
74967;SDS011;63523;51.880;12.630;2023-07-24T01:01:49;4.40;;;0.73;;
74967;SDS011;63523;51.880;12.630;2023-07-24T01:04:14;5.17;;;0.80;;
74967;SDS011;63523;51.880;12.630;2023-07-24T01:06:40;3.10;;;0.70;;
74967;SDS011;63523;51.880;12.630;2023-07-24T01:09:05;3.10;;;0.70;;
74967;SDS011;63523;51.880;12.630;2023-07-24T01:11:38;3.30;;;0.70;;
74967;SDS011;63523;51.880;12.630;2023-07-24T01:14:29;2.92;;;0.50;;
74967;SDS011;63523;51.880;12.630;2023-07-24T01:17:02;3.42;;;0.60;;
74967;SDS011;63523;51.880;12.630;2023-07-24T01:19:42;3.47;;;0.50;;
74967;SDS011;63523;51.880;12.630;2023-07-24T01:27:51;2.70;;;0.50;;
74967;SDS011;63523;51.880;12.630;2023-07-24T01:30:17;5.23;;;0.50;;
74967;SDS011;63523;51.880;12.630;2023-07-24T01:32:43;2.55;;;0.57;;
74967;SDS011;63523;51.880;12.630;2023-07-24T01:35:09;2.80;;;0.50;;
74967;SDS011;63523;51.880;12.630;2023-07-24T01:37:34;2.70;;;0.80;;
74967;SDS011;63523;51.880;12.630;2023-07-24T01:40:01;3.60;;;0.40;;
74967;SDS011;63523;51.880;12.630;2023-07-24T01:42:27;2.72;;;0.60;;
74967;SDS011;63523;51.880;12.630;2023-07-24T01:44:53;2.60;;;0.40;;
74967;SDS011;63523;51.880;12.630;2023-07-24T01:47:19;3.55;;;0.70;;
74967;SDS011;63523;51.880;12.630;2023-07-24T01:49:45;2.97;;;0.43;;
74967;SDS011;63523;51.880;12.630;2023-07-24T01:52:10;2.07;;;0.40;;
74967;SDS011;63523;51.880;12.630;2023-07-24T01:54:35;2.90;;;0.50;;
74967;SDS011;63523;51.880;12.630;2023-07-24T01:57:01;2.73;;;0.53;;
74967;SDS011;63523;51.880;12.630;2023-07-24T01:59:26;3.10;;;0.47;;
74967;SDS011;63523;51.880;12.630;2023-07-24T02:01:51;2.60;;;0.50;;
74967;SDS011;63523;51.880;12.630;2023-07-24T02:04:17;3.00;;;0.50;;
74967;SDS011;63523;51.880;12.630;2023-07-24T02:06:42;2.60;;;0.60;;
74967;SDS011;63523;51.880;12.630;2023-07-24T02:09:07;2.58;;;0.57;;
74967;SDS011;63523;51.880;12.630;2023-07-24T02:11:33;3.20;;;0.50;;
74967;SDS011;63523;51.880;12.630;2023-07-24T02:13:59;3.10;;;0.47;;
74967;SDS011;63523;51.880;12.630;2023-07-24T02:16:24;2.63;;;0.60;;
74967;SDS011;63523;51.880;12.630;2023-07-24T02:18:49;2.17;;;0.37;;
74967;SDS011;63523;51.880;12.630;2023-07-24T02:21:15;2.77;;;0.47;;
74967;SDS011;63523;51.880;12.630;2023-07-24T02:23:40;4.57;;;0.80;;
74967;SDS011;63523;51.880;12.630;2023-07-24T02:26:05;4.03;;;0.50;;
74967;SDS011;63523;51.880;12.630;2023-07-24T02:28:31;2.47;;;0.50;;
74967;SDS011;63523;51.880;12.630;2023-07-24T02:30:56;2.90;;;0.80;;
74967;SDS011;63523;51.880;12.630;2023-07-24T02:33:22;2.95;;;0.52;;
74967;SDS011;63523;51.880;12.630;2023-07-24T02:35:48;3.47;;;0.80;;
74967;SDS011;63523;51.880;12.630;2023-07-24T02:38:16;4.10;;;0.80;;
74967;SDS011;63523;51.880;12.630;2023-07-24T02:40:41;5.57;;;0.90;;
74967;SDS011;63523;51.880;12.630;2023-07-24T02:43:06;4.30;;;0.80;;
74967;SDS011;63523;51.880;12.630;2023-07-24T02:45:35;3.60;;;0.60;;
74967;SDS011;63523;51.880;12.630;2023-07-24T02:48:00;3.53;;;0.70;;
74967;SDS011;63523;51.880;12.630;2023-07-24T02:50:27;4.10;;;0.90;;
74967;SDS011;63523;51.880;12.630;2023-07-24T02:52:52;4.25;;;1.00;;
74967;SDS011;63523;51.880;12.630;2023-07-24T02:55:17;3.27;;;0.67;;
74967;SDS011;63523;51.880;12.630;2023-07-24T02:57:43;3.43;;;0.80;;
74967;SDS011;63523;51.880;12.630;2023-07-24T03:00:08;3.00;;;0.70;;
74967;SDS011;63523;51.880;12.630;2023-07-24T03:02:34;4.03;;;0.73;;
74967;SDS011;63523;51.880;12.630;2023-07-24T03:04:59;4.13;;;0.70;;
74967;SDS011;63523;51.880;12.630;2023-07-24T03:07:24;2.73;;;0.57;;
74967;SDS011;63523;51.880;12.630;2023-07-24T03:09:50;3.10;;;0.60;;
74967;SDS011;63523;51.880;12.630;2023-07-24T03:12:16;3.83;;;0.60;;
74967;SDS011;63523;51.880;12.630;2023-07-24T03:14:41;3.57;;;0.73;;
74967;SDS011;63523;51.880;12.630;2023-07-24T03:17:06;2.93;;;0.80;;
74967;SDS011;63523;51.880;12.630;2023-07-24T03:19:31;2.53;;;0.50;;
74967;SDS011;63523;51.880;12.630;2023-07-24T03:21:57;3.53;;;0.60;;
74967;SDS011;63523;51.880;12.630;2023-07-24T03:24:22;3.37;;;0.53;;
74967;SDS011;63523;51.880;12.630;2023-07-24T03:26:48;3.17;;;0.70;;
74967;SDS011;63523;51.880;12.630;2023-07-24T03:29:13;3.77;;;0.77;;
74967;SDS011;63523;51.880;12.630;2023-07-24T03:31:38;3.80;;;0.80;;
74967;SDS011;63523;51.880;12.630;2023-07-24T03:34:03;4.10;;;0.70;;
74967;SDS011;63523;51.880;12.630;2023-07-24T03:36:29;4.20;;;0.80;;
74967;SDS011;63523;51.880;12.630;2023-07-24T03:38:54;4.67;;;0.67;;
74967;SDS011;63523;51.880;12.630;2023-07-24T03:41:19;2.70;;;0.40;;
74967;SDS011;63523;51.880;12.630;2023-07-24T03:43:45;2.90;;;0.60;;
74967;SDS011;63523;51.880;12.630;2023-07-24T03:46:10;3.33;;;0.57;;
74967;SDS011;63523;51.880;12.630;2023-07-24T03:48:35;3.20;;;0.60;;
74967;SDS011;63523;51.880;12.630;2023-07-24T03:51:01;3.80;;;0.90;;
74967;SDS011;63523;51.880;12.630;2023-07-24T03:53:27;3.67;;;1.00;;
74967;SDS011;63523;51.880;12.630;2023-07-24T03:55:52;2.17;;;0.40;;
74967;SDS011;63523;51.880;12.630;2023-07-24T03:58:18;4.03;;;0.50;;
74967;SDS011;63523;51.880;12.630;2023-07-24T04:00:43;2.00;;;0.47;;
74967;SDS011;63523;51.880;12.630;2023-07-24T04:03:09;3.30;;;0.70;;
74967;SDS011;63523;51.880;12.630;2023-07-24T04:08:05;2.90;;;0.60;;
74967;SDS011;63523;51.880;12.630;2023-07-24T04:10:30;2.37;;;0.33;;
74967;SDS011;63523;51.880;12.630;2023-07-24T04:12:56;2.45;;;0.50;;
74967;SDS011;63523;51.880;12.630;2023-07-24T04:15:22;4.00;;;0.67;;
74967;SDS011;63523;51.880;12.630;2023-07-24T04:17:47;3.90;;;0.47;;
74967;SDS011;63523;51.880;12.630;2023-07-24T04:20:12;2.50;;;0.60;;
74967;SDS011;63523;51.880;12.630;2023-07-24T04:22:38;2.53;;;0.60;;
74967;SDS011;63523;51.880;12.630;2023-07-24T04:25:03;4.90;;;0.90;;
74967;SDS011;63523;51.880;12.630;2023-07-24T04:27:29;5.30;;;1.50;;
74967;SDS011;63523;51.880;12.630;2023-07-24T04:29:54;3.40;;;0.80;;
74967;SDS011;63523;51.880;12.630;2023-07-24T04:32:19;2.97;;;0.77;;
74967;SDS011;63523;51.880;12.630;2023-07-24T04:34:45;3.33;;;0.47;;
74967;SDS011;63523;51.880;12.630;2023-07-24T04:37:10;2.97;;;0.70;;
74967;SDS011;63523;51.880;12.630;2023-07-24T04:39:38;3.30;;;0.60;;
74967;SDS011;63523;51.880;12.630;2023-07-24T04:42:04;2.10;;;0.60;;
74967;SDS011;63523;51.880;12.630;2023-07-24T04:44:29;3.40;;;0.60;;
74967;SDS011;63523;51.880;12.630;2023-07-24T04:46:55;3.97;;;0.70;;
74967;SDS011;63523;51.880;12.630;2023-07-24T04:49:20;2.92;;;0.65;;
74967;SDS011;63523;51.880;12.630;2023-07-24T04:51:46;3.40;;;0.60;;
74967;SDS011;63523;51.880;12.630;2023-07-24T04:54:11;3.90;;;0.70;;
74967;SDS011;63523;51.880;12.630;2023-07-24T04:56:36;3.60;;;0.60;;
74967;SDS011;63523;51.880;12.630;2023-07-24T04:59:02;2.80;;;0.60;;
74967;SDS011;63523;51.880;12.630;2023-07-24T05:01:27;4.03;;;0.60;;
74967;SDS011;63523;51.880;12.630;2023-07-24T05:03:52;2.70;;;0.50;;
74967;SDS011;63523;51.880;12.630;2023-07-24T05:06:17;2.90;;;0.50;;
74967;SDS011;63523;51.880;12.630;2023-07-24T05:08:43;2.50;;;0.53;;
74967;SDS011;63523;51.880;12.630;2023-07-24T05:11:08;2.50;;;0.60;;
74967;SDS011;63523;51.880;12.630;2023-07-24T05:13:33;2.70;;;0.40;;
74967;SDS011;63523;51.880;12.630;2023-07-24T05:15:59;3.67;;;0.53;;
74967;SDS011;63523;51.880;12.630;2023-07-24T05:18:24;2.77;;;0.70;;
74967;SDS011;63523;51.880;12.630;2023-07-24T05:20:49;2.23;;;0.50;;
74967;SDS011;63523;51.880;12.630;2023-07-24T05:23:17;2.53;;;0.60;;
74967;SDS011;63523;51.880;12.630;2023-07-24T05:25:43;3.97;;;0.77;;
74967;SDS011;63523;51.880;12.630;2023-07-24T05:28:08;2.60;;;0.60;;
74967;SDS011;63523;51.880;12.630;2023-07-24T05:30:34;2.53;;;0.60;;
74967;SDS011;63523;51.880;12.630;2023-07-24T05:32:59;2.87;;;0.70;;
74967;SDS011;63523;51.880;12.630;2023-07-24T05:35:25;3.42;;;0.80;;
74967;SDS011;63523;51.880;12.630;2023-07-24T05:37:50;2.50;;;0.50;;
74967;SDS011;63523;51.880;12.630;2023-07-24T05:40:16;3.50;;;0.73;;
74967;SDS011;63523;51.880;12.630;2023-07-24T05:42:41;2.53;;;0.50;;
74967;SDS011;63523;51.880;12.630;2023-07-24T05:45:08;3.20;;;0.70;;
74967;SDS011;63523;51.880;12.630;2023-07-24T05:47:35;3.97;;;0.70;;
74967;SDS011;63523;51.880;12.630;2023-07-24T05:50:01;2.50;;;0.50;;
74967;SDS011;63523;51.880;12.630;2023-07-24T05:52:26;2.20;;;0.50;;
74967;SDS011;63523;51.880;12.630;2023-07-24T05:54:52;4.83;;;0.80;;
74967;SDS011;63523;51.880;12.630;2023-07-24T05:57:17;2.90;;;0.70;;
74967;SDS011;63523;51.880;12.630;2023-07-24T05:59:42;3.27;;;1.00;;
74967;SDS011;63523;51.880;12.630;2023-07-24T06:02:07;5.83;;;0.77;;
74967;SDS011;63523;51.880;12.630;2023-07-24T06:04:34;3.83;;;0.83;;
74967;SDS011;63523;51.880;12.630;2023-07-24T06:06:59;3.37;;;0.97;;
74967;SDS011;63523;51.880;12.630;2023-07-24T06:09:24;3.00;;;0.70;;
74967;SDS011;63523;51.880;12.630;2023-07-24T06:11:50;2.60;;;0.53;;
74967;SDS011;63523;51.880;12.630;2023-07-24T06:14:15;2.70;;;0.60;;
74967;SDS011;63523;51.880;12.630;2023-07-24T06:16:41;2.90;;;0.60;;
74967;SDS011;63523;51.880;12.630;2023-07-24T06:19:06;3.40;;;0.80;;
74967;SDS011;63523;51.880;12.630;2023-07-24T06:21:31;3.10;;;0.80;;
74967;SDS011;63523;51.880;12.630;2023-07-24T06:23:57;3.43;;;0.80;;
74967;SDS011;63523;51.880;12.630;2023-07-24T06:26:22;3.70;;;1.00;;
74967;SDS011;63523;51.880;12.630;2023-07-24T06:28:47;2.50;;;0.70;;
74967;SDS011;63523;51.880;12.630;2023-07-24T06:31:13;4.03;;;0.77;;
74967;SDS011;63523;51.880;12.630;2023-07-24T06:33:38;2.77;;;0.70;;
74967;SDS011;63523;51.880;12.630;2023-07-24T06:36:03;2.65;;;0.65;;
74967;SDS011;63523;51.880;12.630;2023-07-24T06:38:33;3.60;;;0.97;;
74967;SDS011;63523;51.880;12.630;2023-07-24T06:40:58;3.47;;;0.77;;
74967;SDS011;63523;51.880;12.630;2023-07-24T06:43:24;2.97;;;0.85;;
74967;SDS011;63523;51.880;12.630;2023-07-24T06:45:49;3.03;;;0.80;;
74967;SDS011;63523;51.880;12.630;2023-07-24T06:48:14;2.73;;;0.80;;
74967;SDS011;63523;51.880;12.630;2023-07-24T06:50:40;3.17;;;0.80;;
74967;SDS011;63523;51.880;12.630;2023-07-24T06:53:05;3.60;;;1.00;;
74967;SDS011;63523;51.880;12.630;2023-07-24T06:55:30;2.70;;;0.70;;
74967;SDS011;63523;51.880;12.630;2023-07-24T06:57:55;3.83;;;0.93;;
74967;SDS011;63523;51.880;12.630;2023-07-24T07:00:21;3.10;;;0.90;;
74967;SDS011;63523;51.880;12.630;2023-07-24T07:02:46;2.90;;;0.90;;
74967;SDS011;63523;51.880;12.630;2023-07-24T07:05:11;3.33;;;1.03;;
74967;SDS011;63523;51.880;12.630;2023-07-24T07:07:36;2.53;;;0.80;;
74967;SDS011;63523;51.880;12.630;2023-07-24T07:10:02;3.07;;;0.90;;
74967;SDS011;63523;51.880;12.630;2023-07-24T07:12:27;4.13;;;1.10;;
74967;SDS011;63523;51.880;12.630;2023-07-24T07:14:53;3.00;;;0.77;;
74967;SDS011;63523;51.880;12.630;2023-07-24T07:17:18;2.63;;;0.90;;
74967;SDS011;63523;51.880;12.630;2023-07-24T07:19:44;3.43;;;0.90;;
74967;SDS011;63523;51.880;12.630;2023-07-24T07:22:09;4.67;;;1.10;;
74967;SDS011;63523;51.880;12.630;2023-07-24T07:24:34;3.90;;;0.98;;
74967;SDS011;63523;51.880;12.630;2023-07-24T07:27:00;3.30;;;1.10;;
74967;SDS011;63523;51.880;12.630;2023-07-24T07:29:25;3.70;;;0.97;;
74967;SDS011;63523;51.880;12.630;2023-07-24T07:31:50;4.07;;;0.93;;
74967;SDS011;63523;51.880;12.630;2023-07-24T07:34:16;3.53;;;1.10;;
74967;SDS011;63523;51.880;12.630;2023-07-24T07:36:41;3.37;;;1.00;;
74967;SDS011;63523;51.880;12.630;2023-07-24T07:39:06;3.83;;;1.20;;
74967;SDS011;63523;51.880;12.630;2023-07-24T07:41:32;3.70;;;1.20;;
74967;SDS011;63523;51.880;12.630;2023-07-24T07:43:57;4.15;;;1.27;;
74967;SDS011;63523;51.880;12.630;2023-07-24T07:46:23;3.67;;;1.53;;
74967;SDS011;63523;51.880;12.630;2023-07-24T07:48:48;5.30;;;1.80;;
74967;SDS011;63523;51.880;12.630;2023-07-24T07:51:14;4.80;;;1.63;;
74967;SDS011;63523;51.880;12.630;2023-07-24T07:53:39;3.77;;;1.60;;
74967;SDS011;63523;51.880;12.630;2023-07-24T07:56:05;4.00;;;1.47;;
74967;SDS011;63523;51.880;12.630;2023-07-24T07:58:30;4.55;;;1.30;;
74967;SDS011;63523;51.880;12.630;2023-07-24T08:00:55;3.20;;;1.07;;
74967;SDS011;63523;51.880;12.630;2023-07-24T08:03:21;3.60;;;1.40;;
74967;SDS011;63523;51.880;12.630;2023-07-24T08:05:46;4.27;;;1.23;;
74967;SDS011;63523;51.880;12.630;2023-07-24T08:08:12;3.88;;;1.40;;
74967;SDS011;63523;51.880;12.630;2023-07-24T08:10:38;5.73;;;1.57;;
74967;SDS011;63523;51.880;12.630;2023-07-24T08:13:03;4.50;;;1.30;;
74967;SDS011;63523;51.880;12.630;2023-07-24T08:15:29;3.75;;;1.27;;
74967;SDS011;63523;51.880;12.630;2023-07-24T08:17:54;4.13;;;1.60;;
74967;SDS011;63523;51.880;12.630;2023-07-24T08:20:19;3.70;;;1.30;;
74967;SDS011;63523;51.880;12.630;2023-07-24T08:22:44;3.40;;;1.33;;
74967;SDS011;63523;51.880;12.630;2023-07-24T08:25:10;4.43;;;1.70;;
74967;SDS011;63523;51.880;12.630;2023-07-24T08:27:35;4.10;;;1.70;;
74967;SDS011;63523;51.880;12.630;2023-07-24T08:30:00;4.10;;;1.60;;
74967;SDS011;63523;51.880;12.630;2023-07-24T08:32:26;3.58;;;1.25;;
74967;SDS011;63523;51.880;12.630;2023-07-24T08:34:51;4.60;;;1.43;;
74967;SDS011;63523;51.880;12.630;2023-07-24T08:37:16;4.10;;;1.50;;
74967;SDS011;63523;51.880;12.630;2023-07-24T08:39:42;4.43;;;1.80;;
74967;SDS011;63523;51.880;12.630;2023-07-24T08:42:08;3.90;;;1.50;;
74967;SDS011;63523;51.880;12.630;2023-07-24T08:44:37;3.75;;;1.17;;
74967;SDS011;63523;51.880;12.630;2023-07-24T08:47:03;3.80;;;1.48;;
74967;SDS011;63523;51.880;12.630;2023-07-24T08:49:29;4.03;;;1.70;;
74967;SDS011;63523;51.880;12.630;2023-07-24T08:51:55;5.22;;;1.55;;
74967;SDS011;63523;51.880;12.630;2023-07-24T08:54:22;3.38;;;1.40;;
74967;SDS011;63523;51.880;12.630;2023-07-24T08:56:49;5.28;;;1.60;;
74967;SDS011;63523;51.880;12.630;2023-07-24T08:59:16;4.53;;;1.55;;
74967;SDS011;63523;51.880;12.630;2023-07-24T09:01:42;4.77;;;1.63;;
74967;SDS011;63523;51.880;12.630;2023-07-24T09:04:07;4.70;;;1.70;;
74967;SDS011;63523;51.880;12.630;2023-07-24T09:06:33;4.57;;;1.70;;
74967;SDS011;63523;51.880;12.630;2023-07-24T09:08:58;4.38;;;1.88;;
74967;SDS011;63523;51.880;12.630;2023-07-24T09:11:23;5.17;;;2.00;;
74967;SDS011;63523;51.880;12.630;2023-07-24T09:13:49;5.77;;;2.03;;
74967;SDS011;63523;51.880;12.630;2023-07-24T09:16:22;4.75;;;1.88;;
74967;SDS011;63523;51.880;12.630;2023-07-24T09:18:49;4.17;;;1.47;;
74967;SDS011;63523;51.880;12.630;2023-07-24T09:21:26;4.32;;;1.80;;
74967;SDS011;63523;51.880;12.630;2023-07-24T09:23:56;4.38;;;1.80;;
74967;SDS011;63523;51.880;12.630;2023-07-24T09:26:22;4.93;;;2.05;;
74967;SDS011;63523;51.880;12.630;2023-07-24T09:28:51;4.37;;;1.87;;
74967;SDS011;63523;51.880;12.630;2023-07-24T09:31:18;4.53;;;1.88;;
74967;SDS011;63523;51.880;12.630;2023-07-24T09:33:43;4.83;;;2.10;;
74967;SDS011;63523;51.880;12.630;2023-07-24T09:36:09;4.50;;;1.53;;
74967;SDS011;63523;51.880;12.630;2023-07-24T09:38:36;4.80;;;1.90;;
74967;SDS011;63523;51.880;12.630;2023-07-24T09:41:02;5.22;;;2.10;;
74967;SDS011;63523;51.880;12.630;2023-07-24T09:43:28;4.45;;;2.10;;
74967;SDS011;63523;51.880;12.630;2023-07-24T09:45:55;7.90;;;2.17;;
74967;SDS011;63523;51.880;12.630;2023-07-24T09:48:21;4.55;;;2.08;;
74967;SDS011;63523;51.880;12.630;2023-07-24T09:50:52;4.40;;;2.10;;
74967;SDS011;63523;51.880;12.630;2023-07-24T09:56:15;6.38;;;2.47;;
74967;SDS011;63523;51.880;12.630;2023-07-24T09:58:42;5.13;;;2.30;;
74967;SDS011;63523;51.880;12.630;2023-07-24T10:01:09;6.18;;;2.30;;
74967;SDS011;63523;51.880;12.630;2023-07-24T10:03:37;5.88;;;2.33;;
74967;SDS011;63523;51.880;12.630;2023-07-24T10:08:41;6.72;;;2.80;;
74967;SDS011;63523;51.880;12.630;2023-07-24T10:11:08;5.37;;;2.47;;
74967;SDS011;63523;51.880;12.630;2023-07-24T10:13:35;7.05;;;2.55;;
74967;SDS011;63523;51.880;12.630;2023-07-24T10:16:02;6.25;;;2.70;;
74967;SDS011;63523;51.880;12.630;2023-07-24T10:18:30;6.18;;;2.55;;
74967;SDS011;63523;51.880;12.630;2023-07-24T10:23:30;6.40;;;2.70;;
74967;SDS011;63523;51.880;12.630;2023-07-24T10:26:02;6.07;;;2.53;;
74967;SDS011;63523;51.880;12.630;2023-07-24T10:28:31;5.57;;;2.35;;
74967;SDS011;63523;51.880;12.630;2023-07-24T10:30:58;7.82;;;2.53;;
74967;SDS011;63523;51.880;12.630;2023-07-24T10:33:23;5.67;;;2.43;;
74967;SDS011;63523;51.880;12.630;2023-07-24T10:35:52;6.63;;;2.77;;
74967;SDS011;63523;51.880;12.630;2023-07-24T10:38:18;7.47;;;2.70;;
74967;SDS011;63523;51.880;12.630;2023-07-24T10:40:46;5.97;;;2.67;;
74967;SDS011;63523;51.880;12.630;2023-07-24T10:43:28;5.13;;;2.50;;
74967;SDS011;63523;51.880;12.630;2023-07-24T10:45:55;5.77;;;2.60;;
74967;SDS011;63523;51.880;12.630;2023-07-24T10:48:24;7.05;;;2.97;;
74967;SDS011;63523;51.880;12.630;2023-07-24T10:50:50;6.15;;;2.70;;
74967;SDS011;63523;51.880;12.630;2023-07-24T10:53:17;6.72;;;2.80;;
74967;SDS011;63523;51.880;12.630;2023-07-24T10:55:44;7.05;;;2.90;;
74967;SDS011;63523;51.880;12.630;2023-07-24T10:58:11;7.57;;;2.73;;
74967;SDS011;63523;51.880;12.630;2023-07-24T11:00:40;7.93;;;3.00;;
74967;SDS011;63523;51.880;12.630;2023-07-24T11:03:08;5.97;;;2.78;;
74967;SDS011;63523;51.880;12.630;2023-07-24T11:05:38;5.90;;;2.78;;
74967;SDS011;63523;51.880;12.630;2023-07-24T11:08:08;6.30;;;3.20;;
74967;SDS011;63523;51.880;12.630;2023-07-24T11:10:38;6.63;;;3.20;;
74967;SDS011;63523;51.880;12.630;2023-07-24T11:13:15;6.03;;;2.67;;
74967;SDS011;63523;51.880;12.630;2023-07-24T11:15:41;6.85;;;2.83;;
74967;SDS011;63523;51.880;12.630;2023-07-24T11:18:06;5.87;;;2.70;;
74967;SDS011;63523;51.880;12.630;2023-07-24T11:20:33;6.60;;;3.00;;
74967;SDS011;63523;51.880;12.630;2023-07-24T11:23:02;7.82;;;2.65;;
74967;SDS011;63523;51.880;12.630;2023-07-24T11:25:28;6.80;;;2.87;;
74967;SDS011;63523;51.880;12.630;2023-07-24T11:27:53;6.30;;;3.00;;
74967;SDS011;63523;51.880;12.630;2023-07-24T11:30:19;6.93;;;3.00;;
74967;SDS011;63523;51.880;12.630;2023-07-24T11:32:48;6.77;;;2.90;;
74967;SDS011;63523;51.880;12.630;2023-07-24T11:35:14;5.95;;;2.88;;
74967;SDS011;63523;51.880;12.630;2023-07-24T11:37:40;5.40;;;2.97;;
74967;SDS011;63523;51.880;12.630;2023-07-24T11:40:05;6.70;;;2.73;;
74967;SDS011;63523;51.880;12.630;2023-07-24T11:42:40;6.38;;;2.90;;
74967;SDS011;63523;51.880;12.630;2023-07-24T11:45:08;6.93;;;3.17;;
74967;SDS011;63523;51.880;12.630;2023-07-24T11:47:46;6.47;;;3.20;;
74967;SDS011;63523;51.880;12.630;2023-07-24T11:50:14;6.82;;;3.35;;
74967;SDS011;63523;51.880;12.630;2023-07-24T11:52:40;7.45;;;3.20;;
74967;SDS011;63523;51.880;12.630;2023-07-24T11:55:13;6.95;;;3.08;;
74967;SDS011;63523;51.880;12.630;2023-07-24T11:57:40;7.03;;;3.20;;
74967;SDS011;63523;51.880;12.630;2023-07-24T12:00:06;7.40;;;3.53;;
74967;SDS011;63523;51.880;12.630;2023-07-24T12:02:43;7.10;;;3.08;;
74967;SDS011;63523;51.880;12.630;2023-07-24T12:05:09;7.37;;;3.10;;
74967;SDS011;63523;51.880;12.630;2023-07-24T12:07:35;7.77;;;3.07;;
74967;SDS011;63523;51.880;12.630;2023-07-24T12:10:01;6.85;;;3.28;;
74967;SDS011;63523;51.880;12.630;2023-07-24T12:12:38;7.60;;;3.33;;
74967;SDS011;63523;51.880;12.630;2023-07-24T12:15:10;7.10;;;3.20;;
74967;SDS011;63523;51.880;12.630;2023-07-24T12:17:36;5.75;;;2.92;;
74967;SDS011;63523;51.880;12.630;2023-07-24T12:20:03;7.45;;;3.63;;
74967;SDS011;63523;51.880;12.630;2023-07-24T12:22:30;8.37;;;3.23;;
74967;SDS011;63523;51.880;12.630;2023-07-24T12:24:56;9.38;;;3.72;;
74967;SDS011;63523;51.880;12.630;2023-07-24T12:27:21;6.23;;;3.20;;
74967;SDS011;63523;51.880;12.630;2023-07-24T12:29:47;8.33;;;3.63;;
74967;SDS011;63523;51.880;12.630;2023-07-24T12:32:12;9.60;;;3.60;;
74967;SDS011;63523;51.880;12.630;2023-07-24T12:34:38;6.67;;;3.57;;
74967;SDS011;63523;51.880;12.630;2023-07-24T12:37:03;6.07;;;3.43;;
74967;SDS011;63523;51.880;12.630;2023-07-24T12:39:29;6.17;;;3.50;;
74967;SDS011;63523;51.880;12.630;2023-07-24T12:41:54;7.30;;;3.22;;
74967;SDS011;63523;51.880;12.630;2023-07-24T12:44:19;5.73;;;3.20;;
74967;SDS011;63523;51.880;12.630;2023-07-24T12:46:44;8.00;;;3.97;;
74967;SDS011;63523;51.880;12.630;2023-07-24T12:49:10;6.53;;;3.13;;
74967;SDS011;63523;51.880;12.630;2023-07-24T12:51:35;8.83;;;4.23;;
74967;SDS011;63523;51.880;12.630;2023-07-24T12:54:00;7.90;;;3.53;;
74967;SDS011;63523;51.880;12.630;2023-07-24T12:56:26;6.60;;;3.08;;
74967;SDS011;63523;51.880;12.630;2023-07-24T12:58:51;7.40;;;3.37;;
74967;SDS011;63523;51.880;12.630;2023-07-24T13:01:16;6.40;;;2.70;;
74967;SDS011;63523;51.880;12.630;2023-07-24T13:03:42;8.30;;;2.93;;
74967;SDS011;63523;51.880;12.630;2023-07-24T13:06:07;6.83;;;3.13;;
74967;SDS011;63523;51.880;12.630;2023-07-24T13:08:32;8.93;;;2.90;;
74967;SDS011;63523;51.880;12.630;2023-07-24T13:10:58;6.33;;;2.70;;
74967;SDS011;63523;51.880;12.630;2023-07-24T13:13:23;6.53;;;2.93;;
74967;SDS011;63523;51.880;12.630;2023-07-24T13:15:48;8.20;;;2.83;;
74967;SDS011;63523;51.880;12.630;2023-07-24T13:18:16;6.33;;;2.90;;
74967;SDS011;63523;51.880;12.630;2023-07-24T13:20:42;7.63;;;2.90;;
74967;SDS011;63523;51.880;12.630;2023-07-24T13:23:07;7.33;;;3.20;;
74967;SDS011;63523;51.880;12.630;2023-07-24T13:25:32;6.60;;;3.10;;
74967;SDS011;63523;51.880;12.630;2023-07-24T13:27:58;6.23;;;2.97;;
74967;SDS011;63523;51.880;12.630;2023-07-24T13:30:23;7.20;;;3.00;;
74967;SDS011;63523;51.880;12.630;2023-07-24T13:32:48;5.85;;;2.80;;
74967;SDS011;63523;51.880;12.630;2023-07-24T13:35:13;6.60;;;3.20;;
74967;SDS011;63523;51.880;12.630;2023-07-24T13:37:40;5.73;;;2.57;;
74967;SDS011;63523;51.880;12.630;2023-07-24T13:40:06;6.53;;;2.70;;
74967;SDS011;63523;51.880;12.630;2023-07-24T13:42:32;6.03;;;2.50;;
74967;SDS011;63523;51.880;12.630;2023-07-24T13:44:57;6.50;;;2.80;;
74967;SDS011;63523;51.880;12.630;2023-07-24T13:47:23;6.17;;;2.90;;
74967;SDS011;63523;51.880;12.630;2023-07-24T13:49:48;5.30;;;2.58;;
74967;SDS011;63523;51.880;12.630;2023-07-24T13:52:13;6.67;;;2.57;;
74967;SDS011;63523;51.880;12.630;2023-07-24T13:54:39;6.37;;;2.70;;
74967;SDS011;63523;51.880;12.630;2023-07-24T13:57:04;5.80;;;2.70;;
74967;SDS011;63523;51.880;12.630;2023-07-24T13:59:32;7.25;;;2.80;;
74967;SDS011;63523;51.880;12.630;2023-07-24T14:01:58;6.37;;;2.80;;
74967;SDS011;63523;51.880;12.630;2023-07-24T14:04:23;7.20;;;2.70;;
74967;SDS011;63523;51.880;12.630;2023-07-24T14:06:48;6.33;;;2.73;;
74967;SDS011;63523;51.880;12.630;2023-07-24T14:09:13;5.73;;;2.70;;
74967;SDS011;63523;51.880;12.630;2023-07-24T14:11:39;5.73;;;2.70;;
74967;SDS011;63523;51.880;12.630;2023-07-24T14:14:05;5.88;;;2.70;;
74967;SDS011;63523;51.880;12.630;2023-07-24T14:16:31;6.43;;;3.20;;
74967;SDS011;63523;51.880;12.630;2023-07-24T14:18:56;8.73;;;3.50;;
74967;SDS011;63523;51.880;12.630;2023-07-24T14:21:21;7.93;;;2.90;;
74967;SDS011;63523;51.880;12.630;2023-07-24T14:23:47;6.07;;;3.00;;
74967;SDS011;63523;51.880;12.630;2023-07-24T14:26:12;5.60;;;2.70;;
74967;SDS011;63523;51.880;12.630;2023-07-24T14:28:37;6.38;;;2.58;;
74967;SDS011;63523;51.880;12.630;2023-07-24T14:31:03;5.70;;;2.63;;
74967;SDS011;63523;51.880;12.630;2023-07-24T14:33:29;5.82;;;2.90;;
74967;SDS011;63523;51.880;12.630;2023-07-24T14:35:55;6.10;;;2.33;;
74967;SDS011;63523;51.880;12.630;2023-07-24T14:38:20;6.17;;;2.50;;
74967;SDS011;63523;51.880;12.630;2023-07-24T14:40:45;7.47;;;2.80;;
74967;SDS011;63523;51.880;12.630;2023-07-24T14:43:11;5.72;;;2.30;;